Time;durP1;ratioP1;P1;durP2;ratioP2;P2;SDS_P1;SDS_P2;PMS_P1;PMS_P2;Temp;Humidity;BMP_temperature;BMP_pressure;BME280_temperature;BME280_humidity;BME280_pressure;Samples;Min_cycle;Max_cycle;Signal;HPM_P1;HPM_P2
2021/05/17 00:01:09;;;;;;;3.08;1.00;;;;;;;7.71;83.45;99258.88;5015783;28;20034;-76
2021/05/17 00:03:39;;;;;;;3.25;0.90;;;;;;;7.72;83.42;99259.72;5012283;28;20037;-78
2021/05/17 00:06:05;;;;;;;3.55;1.30;;;;;;;7.71;83.77;99258.00;5003891;28;20034;-77
2021/05/17 00:08:30;;;;;;;3.15;1.08;;;;;;;7.70;83.74;99259.72;5004657;28;20034;-78
2021/05/17 00:10:56;;;;;;;2.83;1.30;;;;;;;7.56;84.22;99257.31;5012573;28;20045;-77
2021/05/17 00:13:21;;;;;;;5.25;1.85;;;;;;;7.45;83.99;99265.34;5006440;28;20048;-76
2021/05/17 00:15:47;;;;;;;2.95;0.82;;;;;;;7.50;83.73;99261.81;5004304;28;20045;-77
2021/05/17 00:18:12;;;;;;;1.40;0.60;;;;;;;7.55;83.28;99265.25;5005000;28;20038;-77
2021/05/17 00:20:38;;;;;;;4.38;0.90;;;;;;;7.52;82.60;99268.78;5006225;28;20038;-77
2021/05/17 00:23:04;;;;;;;1.85;0.88;;;;;;;7.48;82.89;99261.81;5005987;28;20057;-77
2021/05/17 00:25:30;;;;;;;1.65;0.80;;;;;;;7.47;82.74;99260.94;5007688;28;20037;-76
2021/05/17 00:27:57;;;;;;;2.22;0.90;;;;;;;7.49;82.42;99257.44;5008787;28;20030;-78
2021/05/17 00:30:29;;;;;;;3.45;0.80;;;;;;;7.49;82.73;99262.69;5006809;28;20041;-78
2021/05/17 00:32:55;;;;;;;2.43;1.07;;;;;;;7.45;82.42;99259.25;5023186;28;20117;-78
2021/05/17 00:35:21;;;;;;;2.65;0.98;;;;;;;7.36;83.15;99256.72;5008046;28;20297;-78
2021/05/17 00:37:47;;;;;;;2.35;1.17;;;;;;;7.28;83.11;99256.81;5006572;28;20069;-78
2021/05/17 00:40:15;;;;;;;2.10;0.80;;;;;;;7.25;83.11;99260.34;5004874;28;20073;-77
2021/05/17 00:42:40;;;;;;;2.85;0.88;;;;;;;7.25;82.83;99247.22;5007587;28;20041;-76
2021/05/17 00:45:09;;;;;;;2.95;1.00;;;;;;;7.23;83.43;99256.00;5005456;28;20030;-78
2021/05/17 00:47:41;;;;;;;2.67;1.20;;;;;;;7.20;83.69;99253.44;5005376;28;20121;-78
2021/05/17 00:50:08;;;;;;;3.47;2.13;;;;;;;7.16;83.34;99249.13;5019645;28;20564;-77
2021/05/17 00:52:35;;;;;;;2.28;1.08;;;;;;;7.07;82.77;99252.72;5005872;28;20455;-78
2021/05/17 00:55:01;;;;;;;2.15;1.13;;;;;;;6.94;83.22;99254.66;5013496;28;20120;-77
2021/05/17 00:57:27;;;;;;;3.78;1.45;;;;;;;6.92;83.64;99248.53;5005883;28;20033;-78
2021/05/17 00:59:52;;;;;;;4.25;1.70;;;;;;;6.95;83.69;99255.50;5006098;28;20546;-77
2021/05/17 01:02:18;;;;;;;2.17;1.13;;;;;;;6.95;83.51;99259.00;5002979;28;20559;-78
2021/05/17 01:05:03;;;;;;;1.80;0.93;;;;;;;6.95;83.35;99266.00;5012691;28;20072;-78
2021/05/17 01:07:30;;;;;;;2.33;1.13;;;;;;;6.89;83.89;99271.28;5013697;28;20045;-78
2021/05/17 01:09:57;;;;;;;3.00;1.45;;;;;;;6.89;83.54;99272.19;5027043;28;20030;-78
2021/05/17 01:12:24;;;;;;;2.10;1.15;;;;;;;6.86;83.50;99266.09;5013871;28;20030;-77
2021/05/17 01:14:58;;;;;;;2.67;1.02;;;;;;;6.86;83.94;99266.97;5019181;28;20034;-78
2021/05/17 01:17:28;;;;;;;2.10;1.05;;;;;;;6.93;83.70;99268.63;5004601;28;20030;-77
2021/05/17 01:20:02;;;;;;;2.67;1.00;;;;;;;6.96;83.69;99273.84;5019349;28;20069;-78
2021/05/17 01:22:47;;;;;;;2.65;1.10;;;;;;;7.06;83.34;99266.72;5002641;28;20416;-77
2021/05/17 01:25:13;;;;;;;3.97;1.40;;;;;;;7.12;83.07;99273.66;5006383;28;20037;-76
2021/05/17 01:27:40;;;;;;;2.42;1.08;;;;;;;7.21;83.53;99274.41;5009321;28;20033;-77
2021/05/17 01:30:06;;;;;;;2.97;1.15;;;;;;;7.33;83.79;99278.63;5008758;28;20451;-78
2021/05/17 01:32:32;;;;;;;4.53;1.45;;;;;;;7.47;83.09;99281.94;5009221;28;20040;-77
2021/05/17 01:34:58;;;;;;;3.35;1.50;;;;;;;7.62;83.06;99274.75;5006482;28;20035;-78
2021/05/17 01:37:25;;;;;;;5.28;1.25;;;;;;;7.68;83.24;99272.03;5008671;28;20105;-78
2021/05/17 01:39:52;;;;;;;2.63;1.10;;;;;;;7.82;83.52;99274.47;5006778;28;20073;-77
2021/05/17 01:42:20;;;;;;;2.90;1.17;;;;;;;7.97;83.00;99276.00;5032023;28;20262;-78
2021/05/17 01:44:46;;;;;;;2.72;1.20;;;;;;;8.12;82.26;99286.22;5007843;28;20392;-77
2021/05/17 01:47:16;;;;;;;2.03;1.10;;;;;;;8.23;82.41;99293.97;5014391;28;20121;-78
2021/05/17 01:49:43;;;;;;;2.70;1.20;;;;;;;8.34;81.95;99292.88;5021603;28;20066;-78
2021/05/17 01:52:10;;;;;;;3.58;1.13;;;;;;;8.37;81.15;99299.84;5006414;28;20076;-78
2021/05/17 01:54:41;;;;;;;2.40;1.15;;;;;;;8.38;81.17;99290.19;5032101;28;20112;-78
2021/05/17 01:57:07;;;;;;;2.70;1.20;;;;;;;8.43;81.79;99298.91;5007687;28;20038;-78
2021/05/17 01:59:34;;;;;;;1.73;0.82;;;;;;;8.48;81.35;99291.81;5005630;28;20033;-77
2021/05/17 02:02:00;;;;;;;2.83;1.23;;;;;;;8.50;81.91;99296.16;5032013;28;20036;-78
2021/05/17 02:04:29;;;;;;;2.33;0.98;;;;;;;8.65;82.13;99288.91;5007346;28;20034;-77
2021/05/17 02:06:55;;;;;;;2.83;1.05;;;;;;;8.81;81.52;99294.75;5023522;28;20061;-78
2021/05/17 02:09:21;;;;;;;4.65;1.10;;;;;;;8.91;81.35;99289.28;5004896;28;20026;-78
2021/05/17 02:11:47;;;;;;;2.75;1.17;;;;;;;8.99;80.77;99286.50;5007826;28;20476;-77
2021/05/17 02:14:44;;;;;;;3.97;1.17;;;;;;;8.90;81.46;99291.91;5002366;28;20439;-78
2021/05/17 02:17:10;;;;;;;3.50;0.95;;;;;;;8.93;80.69;99297.13;5008651;28;20093;-76
2021/05/17 02:19:37;;;;;;;3.00;1.00;;;;;;;8.93;80.59;99297.13;5022352;28;20042;-77
2021/05/17 02:22:02;;;;;;;2.90;1.50;;;;;;;8.94;80.94;99289.22;5021267;28;20219;-77
2021/05/17 02:24:30;;;;;;;2.53;1.17;;;;;;;8.95;81.19;99303.22;5032264;28;20034;-77
2021/05/17 02:26:55;;;;;;;2.97;1.10;;;;;;;9.04;81.05;99304.81;5006134;28;20432;-78
2021/05/17 02:29:21;;;;;;;3.47;1.35;;;;;;;9.12;80.80;99305.56;5006164;28;20113;-78
2021/05/17 02:31:47;;;;;;;5.13;1.92;;;;;;;9.25;79.83;99303.50;5003156;28;20049;-77
2021/05/17 02:34:13;;;;;;;2.88;1.30;;;;;;;9.32;80.07;99306.00;4988871;28;20088;-77
2021/05/17 02:36:38;;;;;;;5.68;1.50;;;;;;;9.37;80.54;99306.75;5005846;28;20035;-77
2021/05/17 02:39:05;;;;;;;4.75;1.65;;;;;;;9.40;80.66;99314.59;5001567;28;20042;-78
2021/05/17 02:41:40;;;;;;;4.13;1.30;;;;;;;9.49;79.95;99313.56;5006847;28;20405;-77
2021/05/17 02:44:06;;;;;;;6.93;1.33;;;;;;;9.58;80.75;99315.97;5006727;28;20562;-77
2021/05/17 02:46:32;;;;;;;5.00;1.20;;;;;;;9.70;80.50;99306.09;5003257;28;20053;-78
2021/05/17 02:48:57;;;;;;;3.42;1.33;;;;;;;9.65;81.48;99308.81;5006857;28;20034;-77
2021/05/17 02:51:23;;;;;;;5.25;1.58;;;;;;;9.60;81.80;99321.22;5006388;28;20516;-76
2021/05/17 02:53:49;;;;;;;3.38;1.50;;;;;;;9.64;82.11;99318.50;5004466;28;20041;-77
2021/05/17 02:56:17;;;;;;;2.97;1.40;;;;;;;9.73;81.36;99321.81;5006490;28;20040;-77
2021/05/17 02:58:57;;;;;;;2.05;1.20;;;;;;;9.88;81.18;99321.50;5030044;28;20034;-78
2021/05/17 03:01:34;;;;;;;2.78;1.33;;;;;;;9.93;80.17;99319.63;5004593;28;20117;-76
2021/05/17 03:04:07;;;;;;;5.20;2.13;;;;;;;9.95;80.48;99315.16;5019822;28;20058;-77
2021/05/17 03:06:39;;;;;;;2.13;1.20;;;;;;;9.92;81.16;99317.88;5002068;28;20026;-76
2021/05/17 03:09:08;;;;;;;4.40;1.70;;;;;;;9.95;81.44;99327.47;5004529;28;20473;-77
2021/05/17 03:11:44;;;;;;;2.78;1.10;;;;;;;10.00;81.48;99331.72;5011715;28;20120;-77
2021/05/17 03:14:14;;;;;;;4.07;1.73;;;;;;;9.98;80.79;99328.28;5004552;28;20401;-77
2021/05/17 03:16:46;;;;;;;4.13;1.60;;;;;;;9.99;80.39;99324.75;5028213;28;20087;-77
2021/05/17 03:19:12;;;;;;;3.33;1.77;;;;;;;9.96;81.09;99319.53;5004290;28;20036;-76
2021/05/17 03:21:39;;;;;;;4.10;1.30;;;;;;;9.98;81.22;99323.03;5010750;28;20105;-77
2021/05/17 03:24:06;;;;;;;4.10;1.35;;;;;;;9.98;81.48;99327.41;5006075;28;20034;-77
2021/05/17 03:26:35;;;;;;;4.82;1.95;;;;;;;10.03;81.79;99330.78;5005993;28;20061;-76
2021/05/17 03:29:01;;;;;;;5.95;1.80;;;;;;;10.08;81.44;99335.06;5002667;28;20077;-77
2021/05/17 03:31:26;;;;;;;5.65;1.90;;;;;;;10.17;81.61;99334.00;5004627;28;20069;-77
2021/05/17 03:33:52;;;;;;;3.10;1.30;;;;;;;10.24;81.55;99329.44;5003248;28;20027;-76
2021/05/17 03:36:17;;;;;;;2.67;1.30;;;;;;;10.28;82.16;99326.72;5002827;28;20030;-77
2021/05/17 03:38:42;;;;;;;2.53;1.33;;;;;;;10.34;81.02;99330.97;5005377;28;20042;-76
2021/05/17 03:41:08;;;;;;;3.33;1.38;;;;;;;10.21;82.56;99330.38;5002594;28;20050;-77
2021/05/17 03:43:33;;;;;;;2.75;1.10;;;;;;;10.27;82.56;99332.91;5003547;28;20033;-77
2021/05/17 03:45:59;;;;;;;4.25;1.98;;;;;;;10.36;82.43;99333.59;5004704;28;20436;-77
2021/05/17 03:48:24;;;;;;;3.92;1.90;;;;;;;10.41;81.95;99337.84;5017192;28;20046;-76
2021/05/17 03:50:50;;;;;;;6.75;2.40;;;;;;;10.49;82.03;99335.88;5005123;28;20038;-78
2021/05/17 03:53:17;;;;;;;3.30;1.52;;;;;;;10.53;80.80;99341.94;5029143;28;20034;-78
2021/05/17 03:55:43;;;;;;;3.50;1.42;;;;;;;10.53;80.91;99331.38;5008039;28;20070;-76
2021/05/17 03:58:08;;;;;;;6.50;2.53;;;;;;;10.55;81.47;99339.25;5004896;28;20045;-78
2021/05/17 04:00:33;;;;;;;4.50;1.40;;;;;;;10.61;80.74;99341.75;5007182;28;20026;-77
2021/05/17 04:03:01;;;;;;;4.22;1.55;;;;;;;10.68;80.88;99353.88;5007160;28;20045;-76
2021/05/17 04:08:07;;;;;;;4.93;1.85;;;;;;;10.66;81.56;99342.50;5005984;28;20045;-78
2021/05/17 04:15:42;;;;;;;7.75;2.38;;;;;;;10.93;80.99;99336.50;5003743;28;20042;-78
2021/05/17 04:18:08;;;;;;;4.78;2.33;;;;;;;10.95;80.51;99336.44;5006802;28;20029;-78
2021/05/17 04:20:34;;;;;;;5.28;2.30;;;;;;;10.95;81.14;99345.25;5004346;28;20041;-76
2021/05/17 04:22:59;;;;;;;4.03;1.73;;;;;;;10.90;80.91;99351.56;5004066;28;20124;-75
2021/05/17 04:25:24;;;;;;;5.90;2.17;;;;;;;10.86;81.02;99355.19;5005578;28;20464;-78
2021/05/17 04:27:50;;;;;;;3.38;2.00;;;;;;;10.77;81.09;99368.59;5000545;28;20030;-77
2021/05/17 04:30:16;;;;;;;5.05;2.20;;;;;;;10.69;81.75;99358.28;5003241;28;20033;-76
2021/05/17 04:32:41;;;;;;;5.68;2.25;;;;;;;10.59;81.66;99356.75;5003790;28;20034;-77
2021/05/17 04:35:07;;;;;;;4.72;2.20;;;;;;;10.48;81.26;99352.63;5016885;28;20044;-78
2021/05/17 04:37:33;;;;;;;3.85;2.10;;;;;;;10.41;81.22;99364.22;5004507;28;20077;-78
2021/05/17 04:39:58;;;;;;;4.82;2.45;;;;;;;10.35;81.39;99372.28;5026174;28;20048;-77
2021/05/17 04:42:23;;;;;;;5.43;2.50;;;;;;;10.33;81.61;99366.16;5011065;28;20065;-76
2021/05/17 04:44:49;;;;;;;5.78;2.42;;;;;;;10.38;81.27;99361.66;5001440;28;20117;-77
2021/05/17 04:47:14;;;;;;;4.75;2.33;;;;;;;10.38;81.29;99366.94;5004051;28;20037;-78
2021/05/17 04:49:39;;;;;;;5.60;2.80;;;;;;;10.42;81.41;99360.66;5004680;28;20068;-77
2021/05/17 04:52:05;;;;;;;5.28;3.10;;;;;;;10.45;81.24;99365.88;5001989;28;20046;-77
2021/05/17 04:54:30;;;;;;;15.88;11.90;;;;;;;10.51;81.06;99362.22;5004425;28;20037;-76
2021/05/17 04:56:56;;;;;;;6.93;3.78;;;;;;;10.52;81.23;99364.81;5025714;28;20046;-77
2021/05/17 04:59:21;;;;;;;4.47;2.35;;;;;;;10.56;81.00;99360.34;5005512;28;20042;-77
2021/05/17 05:01:46;;;;;;;5.07;2.17;;;;;;;10.65;80.54;99369.78;5001506;28;20038;-77
2021/05/17 05:04:12;;;;;;;4.43;1.70;;;;;;;10.69;80.85;99369.69;5007266;28;20041;-76
2021/05/17 05:06:37;;;;;;;3.65;1.70;;;;;;;10.73;80.70;99365.19;5007589;28;20121;-77
2021/05/17 05:09:03;;;;;;;3.30;1.35;;;;;;;10.78;80.62;99368.56;5005271;28;20053;-78
2021/05/17 05:11:28;;;;;;;5.18;1.40;;;;;;;10.82;80.71;99367.59;5007407;28;20531;-77
2021/05/17 05:13:54;;;;;;;3.67;1.50;;;;;;;10.90;80.74;99378.81;5007044;28;20038;-77
2021/05/17 05:16:19;;;;;;;2.42;1.10;;;;;;;10.98;80.51;99376.00;5006879;28;20048;-77
2021/05/17 05:18:44;;;;;;;5.00;1.27;;;;;;;11.00;81.54;99378.56;5007992;28;20046;-77
2021/05/17 05:21:10;;;;;;;4.43;1.83;;;;;;;11.11;81.11;99376.53;5005865;28;20089;-76
2021/05/17 05:23:35;;;;;;;3.58;1.70;;;;;;;11.22;81.35;99376.25;5004632;28;20109;-77
2021/05/17 05:33:35;;;;;;;5.47;1.38;;;;;;;11.88;79.65;99385.81;5005457;28;20045;-77
2021/05/17 05:36:00;;;;;;;2.17;1.10;;;;;;;11.93;79.78;99383.06;5006288;28;20064;-76
2021/05/17 05:38:26;;;;;;;3.50;1.20;;;;;;;11.97;79.46;99382.91;5003857;28;20042;-77
2021/05/17 05:40:51;;;;;;;5.72;1.30;;;;;;;11.91;79.08;99379.59;5004339;28;20125;-77
2021/05/17 05:43:18;;;;;;;3.53;1.55;;;;;;;11.88;78.35;99383.19;5005518;28;20444;-77
2021/05/17 05:45:46;;;;;;;4.00;1.90;;;;;;;11.91;77.79;99382.22;5003514;28;20516;-77
2021/05/17 05:48:13;;;;;;;8.07;1.80;;;;;;;12.04;78.10;99391.53;5005541;28;20038;-77
2021/05/17 05:50:39;;;;;;;3.47;1.17;;;;;;;12.22;77.39;99375.09;5005603;28;20061;-76
2021/05/17 05:53:05;;;;;;;10.35;3.10;;;;;;;12.33;76.96;99384.47;5003443;28;20042;-77
2021/05/17 05:55:31;;;;;;;5.63;1.92;;;;;;;12.42;76.35;99395.63;5009793;28;20057;-77
2021/05/17 05:57:57;;;;;;;2.85;0.88;;;;;;;12.47;74.20;99390.16;5019705;28;20038;-77
2021/05/17 06:00:23;;;;;;;3.00;0.80;;;;;;;12.50;74.63;99380.38;5025030;28;20038;-77
2021/05/17 06:02:49;;;;;;;1.83;0.70;;;;;;;12.60;74.79;99375.66;5007299;28;20046;-77
2021/05/17 06:05:14;;;;;;;2.63;1.00;;;;;;;12.81;74.01;99378.47;5007135;28;20034;-77
2021/05/17 06:07:40;;;;;;;2.53;0.70;;;;;;;12.72;73.94;99375.22;5003683;28;20045;-77
2021/05/17 06:10:06;;;;;;;2.67;1.00;;;;;;;12.65;73.74;99378.13;5005641;28;20038;-77
2021/05/17 06:12:32;;;;;;;3.13;1.10;;;;;;;12.61;73.60;99389.75;5003985;28;20060;-77
2021/05/17 06:15:03;;;;;;;2.55;0.98;;;;;;;12.69;73.90;99385.06;5002588;28;20038;-77
2021/05/17 06:17:29;;;;;;;2.38;0.82;;;;;;;12.74;73.99;99388.41;5006301;28;20046;-77
2021/05/17 06:19:55;;;;;;;3.63;0.98;;;;;;;12.81;72.74;99383.78;5027647;28;20125;-77
2021/05/17 06:22:22;;;;;;;1.90;0.70;;;;;;;12.92;72.72;99384.28;5002352;28;20041;-77
2021/05/17 06:24:48;;;;;;;1.80;0.80;;;;;;;13.24;72.06;99384.97;5003698;28;20090;-77
2021/05/17 06:27:13;;;;;;;2.95;0.80;;;;;;;13.54;71.26;99381.22;5019943;28;20069;-77
2021/05/17 06:29:39;;;;;;;3.10;0.80;;;;;;;13.86;70.60;99378.28;5003855;28;20053;-77
2021/05/17 06:32:07;;;;;;;3.83;0.80;;;;;;;13.97;70.40;99379.63;5029599;28;20022;-77
2021/05/17 06:34:37;;;;;;;1.17;0.47;;;;;;;13.89;68.15;99397.63;5004537;28;20124;-77
2021/05/17 06:37:03;;;;;;;1.23;0.40;;;;;;;13.75;67.94;99384.88;5005764;28;20060;-77
2021/05/17 06:39:28;;;;;;;2.30;0.60;;;;;;;13.58;67.75;99396.09;5003332;28;20046;-76
2021/05/17 06:41:53;;;;;;;1.55;0.60;;;;;;;13.74;67.80;99393.75;5004165;28;20049;-77
2021/05/17 06:44:19;;;;;;;1.55;0.57;;;;;;;13.64;65.75;99396.81;5005564;28;20049;-77
2021/05/17 06:46:45;;;;;;;2.75;0.60;;;;;;;13.64;68.34;99391.50;5002738;28;20401;-77
2021/05/17 06:49:10;;;;;;;1.65;0.60;;;;;;;13.66;68.24;99393.16;5005655;28;20060;-77
2021/05/17 06:51:36;;;;;;;3.28;0.50;;;;;;;13.55;66.68;99393.56;5004665;28;20044;-77
2021/05/17 06:54:02;;;;;;;1.08;0.40;;;;;;;13.35;67.81;99396.94;5002787;28;20046;-77
2021/05/17 06:56:38;;;;;;;4.72;0.55;;;;;;;13.44;68.17;99398.41;5004745;28;20045;-77
2021/05/17 06:59:04;;;;;;;2.05;0.63;;;;;;;13.39;67.94;99389.75;5004441;28;20038;-77
2021/05/17 07:01:30;;;;;;;1.15;0.45;;;;;;;13.41;67.26;99401.13;5001277;28;20034;-77
2021/05/17 07:03:56;;;;;;;1.63;0.63;;;;;;;13.26;67.73;99404.31;5001531;28;20405;-77
2021/05/17 07:06:26;;;;;;;2.65;0.50;;;;;;;13.12;67.63;99418.88;5027268;28;20037;-77
2021/05/17 07:11:46;;;;;;;3.10;0.80;;;;;;;12.96;68.48;99425.63;5003049;28;20030;-76
2021/05/17 07:14:12;;;;;;;2.85;0.65;;;;;;;12.91;68.84;99430.22;5002067;28;20034;-77
2021/05/17 07:16:37;;;;;;;2.22;0.90;;;;;;;12.96;69.61;99430.94;5002568;28;20026;-77
2021/05/17 07:19:03;;;;;;;2.15;0.70;;;;;;;13.35;67.95;99430.50;5002994;28;20164;-77
2021/05/17 07:24:12;;;;;;;1.85;0.68;;;;;;;14.08;66.48;99423.44;5008422;28;20037;-77
2021/05/17 07:26:37;;;;;;;1.42;0.60;;;;;;;14.32;64.85;99414.53;5002852;28;20109;-77
2021/05/17 07:29:06;;;;;;;3.85;0.88;;;;;;;14.57;65.35;99416.25;5002010;28;20401;-76
2021/05/17 07:31:32;;;;;;;1.90;0.73;;;;;;;14.57;64.34;99413.59;5002154;28;20066;-77
2021/05/17 07:33:57;;;;;;;2.85;0.63;;;;;;;14.66;64.26;99422.03;5004450;28;20415;-76
2021/05/17 07:36:23;;;;;;;1.20;0.40;;;;;;;14.78;62.85;99420.69;5001986;28;20069;-77
2021/05/17 07:38:48;;;;;;;4.30;0.63;;;;;;;14.70;62.91;99428.13;5002257;28;20073;-77
2021/05/17 07:41:15;;;;;;;2.28;0.60;;;;;;;14.60;64.19;99419.66;5004446;28;20037;-75
2021/05/17 07:43:40;;;;;;;3.90;0.60;;;;;;;14.80;62.90;99423.28;5003084;28;20040;-77
2021/05/17 07:46:06;;;;;;;2.60;0.63;;;;;;;14.92;62.33;99427.22;5002901;28;20034;-77
2021/05/17 07:48:31;;;;;;;1.40;0.50;;;;;;;14.80;62.46;99429.47;5003930;28;20480;-77
2021/05/17 07:50:57;;;;;;;1.00;0.50;;;;;;;15.12;60.60;99419.28;5004471;28;20037;-77
2021/05/17 07:53:22;;;;;;;1.98;0.70;;;;;;;15.27;61.34;99431.94;5023311;28;20524;-77
2021/05/17 07:55:52;;;;;;;3.28;0.70;;;;;;;15.14;61.23;99433.34;5010889;28;20496;-77
2021/05/17 07:58:18;;;;;;;2.00;0.65;;;;;;;15.09;60.27;99435.34;5001377;28;20038;-77
2021/05/17 08:00:44;;;;;;;2.25;0.65;;;;;;;15.24;59.68;99426.72;5001538;28;20120;-78
2021/05/17 08:03:09;;;;;;;3.13;0.70;;;;;;;15.26;60.56;99435.50;5025609;28;20040;-77
2021/05/17 08:05:35;;;;;;;3.03;0.75;;;;;;;15.29;60.65;99432.69;5004658;28;20409;-77
2021/05/17 08:08:00;;;;;;;3.15;0.70;;;;;;;15.49;59.99;99433.66;5001840;28;20038;-76
2021/05/17 08:10:26;;;;;;;1.38;0.50;;;;;;;15.59;58.11;99429.66;5001974;28;20038;-77
2021/05/17 08:12:51;;;;;;;1.17;0.47;;;;;;;15.56;59.38;99424.44;5010891;28;20108;-77
2021/05/17 08:15:17;;;;;;;1.58;0.50;;;;;;;15.32;58.41;99432.56;5003730;28;20478;-77
2021/05/17 08:17:42;;;;;;;2.08;0.68;;;;;;;15.19;59.49;99426.03;5023822;28;20030;-76
2021/05/17 08:20:08;;;;;;;2.42;0.70;;;;;;;15.35;61.00;99423.59;5004726;28;20496;-77
2021/05/17 08:22:35;;;;;;;1.15;0.50;;;;;;;15.63;57.61;99435.69;5001016;28;20032;-77
2021/05/17 08:25:01;;;;;;;1.00;0.50;;;;;;;15.73;58.09;99421.09;5018270;28;20025;-77
2021/05/17 08:27:27;;;;;;;2.75;1.00;;;;;;;16.00;57.28;99433.13;5003319;28;20114;-77
2021/05/17 08:29:52;;;;;;;3.00;1.00;;;;;;;16.18;57.99;99433.22;5001165;28;20121;-77
2021/05/17 08:32:17;;;;;;;2.70;0.70;;;;;;;16.33;57.69;99437.81;5003083;28;20038;-77
2021/05/17 08:34:43;;;;;;;2.20;0.88;;;;;;;16.13;55.97;99440.53;5002758;28;20096;-77
2021/05/17 08:37:08;;;;;;;3.92;0.80;;;;;;;15.85;56.98;99443.59;5001670;28;20088;-77
2021/05/17 08:39:34;;;;;;;2.78;0.70;;;;;;;15.68;57.68;99436.34;5007105;28;20046;-77
2021/05/17 08:42:00;;;;;;;2.15;0.60;;;;;;;15.55;57.88;99433.38;5005200;28;20572;-77
2021/05/17 08:44:26;;;;;;;2.00;0.52;;;;;;;15.43;57.40;99441.88;5005323;28;20482;-77
2021/05/17 08:46:52;;;;;;;3.42;0.85;;;;;;;15.24;57.75;99442.66;5007131;28;20073;-77
2021/05/17 08:49:18;;;;;;;2.90;0.50;;;;;;;15.14;58.11;99438.66;5005186;28;20057;-77
2021/05/17 08:51:44;;;;;;;1.95;0.57;;;;;;;15.22;58.06;99441.88;5005059;28;20113;-76
2021/05/17 08:54:10;;;;;;;2.28;0.68;;;;;;;15.47;57.88;99440.81;5007070;28;20069;-77
2021/05/17 08:56:42;;;;;;;3.95;0.70;;;;;;;15.50;56.98;99443.34;5004847;28;20069;-77
2021/05/17 08:59:08;;;;;;;1.63;0.63;;;;;;;15.71;56.88;99447.75;5003620;28;20045;-78
2021/05/17 09:01:33;;;;;;;4.20;0.85;;;;;;;16.01;56.75;99447.31;5013567;28;20037;-75
2021/05/17 09:03:58;;;;;;;2.03;0.82;;;;;;;16.49;55.00;99463.72;5013598;28;20511;-77
2021/05/17 09:06:48;;;;;;;2.00;0.88;;;;;;;16.30;54.96;99458.41;5008363;28;20603;-77
2021/05/17 09:09:33;;;;;;;4.45;0.90;;;;;;;16.19;55.01;99461.53;5007171;28;20398;-77
2021/05/17 09:12:04;;;;;;;1.98;0.55;;;;;;;15.89;54.95;99458.50;5006495;28;20049;-77
2021/05/17 09:14:31;;;;;;;2.10;0.68;;;;;;;15.74;55.01;99457.38;5027609;28;20049;-77
2021/05/17 09:17:00;;;;;;;2.03;0.90;;;;;;;16.03;55.45;99456.06;5008307;28;20113;-77
2021/05/17 09:19:27;;;;;;;2.70;0.60;;;;;;;16.32;55.06;99457.41;5006785;28;20034;-77
2021/05/17 09:22:00;;;;;;;3.58;0.80;;;;;;;16.73;53.31;99459.03;5004919;28;20126;-77
2021/05/17 09:24:47;;;;;;;1.42;0.52;;;;;;;16.71;50.88;99459.09;5002830;28;20521;-77
2021/05/17 09:27:19;;;;;;;3.90;0.70;;;;;;;16.67;51.33;99456.66;5002561;28;20034;-77
2021/05/17 09:29:49;;;;;;;3.70;0.60;;;;;;;16.23;52.61;99456.97;5004982;28;20042;-76
2021/05/17 09:32:27;;;;;;;3.63;0.70;;;;;;;16.04;52.49;99457.81;5006308;28;20030;-77
2021/05/17 09:35:08;;;;;;;2.97;0.70;;;;;;;15.95;50.82;99460.88;5028773;28;20065;-77
2021/05/17 09:37:59;;;;;;;8.57;1.52;;;;;;;16.09;51.89;99462.94;5006520;28;20081;-77
2021/05/17 09:40:27;;;;;;;2.20;0.80;;;;;;;16.34;50.50;99459.97;5006563;28;20038;-77
2021/05/17 09:43:05;;;;;;;2.45;0.45;;;;;;;16.26;50.73;99452.34;5007529;28;20030;-77
2021/05/17 09:45:36;;;;;;;1.30;0.77;;;;;;;16.18;51.00;99463.34;5006078;28;20652;-77
2021/05/17 09:48:07;;;;;;;4.45;0.68;;;;;;;15.87;49.61;99453.25;5004150;28;20034;-77
2021/05/17 09:50:54;;;;;;;3.43;0.87;;;;;;;15.91;50.30;99457.50;5003260;28;20045;-77
2021/05/17 09:53:24;;;;;;;3.03;0.63;;;;;;;16.24;50.84;99448.03;5003308;28;20038;-77
2021/05/17 09:55:49;;;;;;;2.72;0.63;;;;;;;16.54;49.38;99454.59;5004635;28;20046;-77
2021/05/17 09:58:32;;;;;;;2.50;0.82;;;;;;;16.81;49.01;99459.53;5005832;28;20030;-77
2021/05/17 10:01:09;;;;;;;3.13;0.60;;;;;;;17.13;47.79;99449.94;5011636;28;20068;-77
2021/05/17 10:03:44;;;;;;;2.65;0.85;;;;;;;17.51;47.44;99442.66;5011374;28;20044;-77
2021/05/17 10:06:11;;;;;;;2.28;0.40;;;;;;;17.79;44.39;99453.69;5005531;28;20053;-76
2021/05/17 10:08:37;;;;;;;1.95;0.63;;;;;;;17.74;46.18;99435.25;5011964;28;20034;-77
2021/05/17 10:11:05;;;;;;;2.83;0.60;;;;;;;17.94;46.11;99432.41;5007890;28;20036;-79
2021/05/17 10:13:34;;;;;;;2.75;0.82;;;;;;;18.23;45.56;99442.44;5003280;28;20105;-78
2021/05/17 10:16:05;;;;;;;3.38;0.85;;;;;;;18.28;44.73;99432.38;5004374;28;20038;-76
2021/05/17 10:18:31;;;;;;;2.00;0.60;;;;;;;18.44;45.27;99432.38;5006443;28;20091;-77
2021/05/17 10:20:57;;;;;;;3.13;0.73;;;;;;;18.44;46.20;99427.03;5003403;28;20030;-76
2021/05/17 10:23:25;;;;;;;2.47;0.57;;;;;;;18.27;45.72;99434.19;5004622;28;20026;-77
2021/05/17 10:25:52;;;;;;;2.33;0.70;;;;;;;18.02;45.81;99428.47;5006194;28;20081;-77
2021/05/17 10:28:22;;;;;;;2.67;0.65;;;;;;;17.96;46.09;99425.16;5008113;28;20029;-78
2021/05/17 10:30:48;;;;;;;1.50;0.40;;;;;;;17.61;45.08;99428.84;5008272;28;20060;-76
2021/05/17 10:33:25;;;;;;;2.33;0.60;;;;;;;17.69;45.27;99443.50;5006870;28;20034;-78
2021/05/17 10:35:52;;;;;;;4.38;0.80;;;;;;;17.89;45.51;99436.25;5004763;28;20038;-77
2021/05/17 10:38:31;;;;;;;2.70;0.60;;;;;;;18.14;44.25;99434.00;5005156;28;20511;-76
2021/05/17 10:41:45;;;;;;;2.92;0.98;;;;;;;18.77;43.17;99433.16;5005030;28;20046;-77
2021/05/17 10:46:50;;;;;;;2.08;0.60;;;;;;;18.74;43.22;99433.31;5004686;28;20049;-77
2021/05/17 10:49:24;;;;;;;2.58;0.73;;;;;;;18.78;43.27;99434.03;5005173;28;20084;-78
2021/05/17 10:52:03;;;;;;;2.33;0.77;;;;;;;19.07;44.22;99428.81;5004907;28;20036;-77
2021/05/17 10:54:38;;;;;;;2.30;0.63;;;;;;;19.00;43.70;99431.00;5026443;28;20037;-77
2021/05/17 10:57:41;;;;;;;2.08;0.60;;;;;;;18.81;43.24;99429.38;5001854;28;20035;-77
2021/05/17 11:00:22;;;;;;;2.00;0.50;;;;;;;19.12;42.86;99422.22;5003449;28;20104;-77
2021/05/17 11:02:50;;;;;;;5.20;1.20;;;;;;;19.39;42.07;99408.19;5011689;28;20041;-78
2021/05/17 11:05:20;;;;;;;2.25;0.50;;;;;;;19.51;40.79;99415.44;5002293;28;20041;-78
2021/05/17 11:07:50;;;;;;;2.50;0.55;;;;;;;19.19;42.29;99420.91;5019301;28;20041;-78
2021/05/17 11:10:35;;;;;;;2.13;0.60;;;;;;;19.26;40.83;99416.09;5007728;28;20116;-78
2021/05/17 11:13:03;;;;;;;2.45;0.70;;;;;;;19.34;41.46;99413.81;5007765;28;20038;-77
2021/05/17 11:15:54;;;;;;;2.22;0.70;;;;;;;19.43;40.28;99410.56;5002318;28;20539;-77
2021/05/17 11:18:22;;;;;;;4.28;1.10;;;;;;;19.60;39.90;99416.72;5006030;28;20124;-78
2021/05/17 11:20:51;;;;;;;2.90;0.70;;;;;;;19.75;39.54;99409.56;5002312;28;20026;-78
2021/05/17 11:23:36;;;;;;;2.30;0.80;;;;;;;19.92;38.94;99417.44;5005948;28;20033;-78
2021/05/17 11:26:09;;;;;;;2.47;0.75;;;;;;;19.98;39.97;99416.19;4997570;28;20148;-78
2021/05/17 11:28:41;;;;;;;3.10;0.80;;;;;;;20.05;40.84;99412.16;5004700;28;20048;-78
2021/05/17 11:33:58;;;;;;;3.47;0.95;;;;;;;20.70;39.26;99419.66;5003980;28;20041;-76
2021/05/17 11:36:50;;;;;;;1.58;0.88;;;;;;;20.84;36.04;99422.25;5002010;28;20547;-77
2021/05/17 11:39:21;;;;;;;2.30;0.80;;;;;;;21.35;36.14;99411.69;5005117;28;20038;-77
2021/05/17 11:42:00;;;;;;;3.28;0.93;;;;;;;21.29;36.27;99411.22;5001409;28;20049;-77
2021/05/17 11:44:30;;;;;;;1.98;1.00;;;;;;;21.51;37.43;99424.06;5004713;28;20042;-77
2021/05/17 11:46:59;;;;;;;3.20;0.88;;;;;;;21.65;37.00;99419.44;5011555;28;20038;-77
2021/05/17 11:49:27;;;;;;;2.08;0.95;;;;;;;21.57;35.70;99415.59;5002006;28;20041;-78
2021/05/17 11:51:57;;;;;;;2.03;0.88;;;;;;;21.35;36.97;99432.25;5002365;28;20038;-77
2021/05/17 11:54:33;;;;;;;3.17;0.80;;;;;;;21.39;37.99;99434.66;5004405;28;20040;-77
2021/05/17 11:57:00;;;;;;;2.50;0.95;;;;;;;21.07;37.84;99427.94;5003351;28;20112;-78
2021/05/17 11:59:27;;;;;;;2.75;0.93;;;;;;;21.20;36.72;99429.69;5001271;28;20504;-77
2021/05/17 12:01:55;;;;;;;4.25;1.00;;;;;;;21.11;37.12;99422.22;5002935;28;20088;-77
2021/05/17 12:04:29;;;;;;;2.40;1.02;;;;;;;21.71;36.50;99422.69;5003872;28;20041;-77
2021/05/17 12:06:59;;;;;;;2.13;0.82;;;;;;;22.22;37.63;99420.84;5004185;28;20030;-76
2021/05/17 12:09:53;;;;;;;2.63;1.10;;;;;;;22.55;34.70;99419.34;5004666;28;20033;-77